.
WxDataArchive / Data Records for 2006-08-01
2006-07-31 August 2006 2006-08-02

Data Records for Tuesday, 01 August 2006

Time	Temp	Chill	HIndex	Humid	Dewpt	 Wind 	HiWind	WindDir	Rain 	Barom 
-----	----	-----	------	-----	-----	------	------	-------	-----	----- 
00:00	84.0	84.0	93.2	78	76.4	1	2	270	0.00	29.852 
00:05	83.8	83.8	92.7	78	76.2	1	3	270	0.00	29.852 
00:10	83.6	83.6	92.2	78	76.0	1	4	248	0.00	29.852 
00:15	83.6	83.6	92.2	78	76.0	1	3	248	0.00	29.853 
00:20	83.6	83.6	91.9	77	75.6	1	5	248	0.00	29.853 
00:25	83.6	83.6	91.9	77	75.6	1	4	248	0.00	29.853 
00:30	83.4	83.4	91.4	77	75.4	1	3	225	0.00	29.852 
00:35	83.4	83.4	91.4	77	75.4	1	5	248	0.00	29.852 
00:40	83.4	83.4	91.4	77	75.4	1	4	248	0.00	29.852 
00:45	83.4	83.4	91.4	77	75.4	1	2	248	0.00	29.854 
00:50	83.2	83.2	90.9	77	75.2	0	1	248	0.00	29.854 
00:55	83.0	83.0	90.4	77	75.0	1	3	248	0.00	29.854 
01:00	83.2	83.2	90.6	76	74.8	1	4	248	0.00	29.858 
01:05	83.2	83.2	90.3	75	74.4	1	3	270	0.00	29.858 
01:10	83.0	83.0	89.8	75	74.2	1	3	248	0.00	29.858 
01:15	83.0	83.0	89.8	75	74.2	1	2	248	0.00	29.862 
01:20	82.8	82.8	89.3	75	74.0	1	2	248	0.00	29.862 
01:25	82.8	82.8	89.3	75	74.0	1	3	270	0.00	29.862 
01:30	82.6	82.6	88.9	75	73.8	0	2	270	0.00	29.865 
01:35	82.4	82.4	88.7	76	74.1	0	2	270	0.00	29.865 
01:40	82.4	82.4	88.7	76	74.1	0	3	270	0.00	29.865 
01:45	82.2	82.2	88.3	76	73.9	1	2	270	0.00	29.865 
01:50	82.2	82.2	88.3	76	73.9	1	2	270	0.00	29.865 
01:55	82.0	82.0	88.0	77	74.1	1	3	270	0.00	29.865 
02:00	82.0	82.0	88.0	77	74.1	1	4	248	0.00	29.862 
02:05	81.8	81.8	87.6	77	73.9	1	2	248	0.00	29.862 
02:10	81.8	81.8	87.6	77	73.9	1	2	248	0.00	29.862 
02:15	81.6	81.6	87.4	78	74.1	0	2	248	0.00	29.860 
02:20	81.4	81.4	86.9	78	73.9	0	2	248	0.00	29.860 
02:25	81.2	81.2	86.7	79	74.0	1	2	248	0.00	29.860 
02:30	81.2	81.2	86.7	79	74.0	1	3	248	0.00	29.865 
02:35	81.2	81.2	86.7	79	74.0	1	2	248	0.00	29.865 
02:40	81.1	81.1	86.5	79	73.9	0	2	248	0.00	29.865 
02:45	80.9	80.9	86.0	79	73.8	1	3	248	0.00	29.861 
02:50	80.9	80.9	86.2	80	74.1	1	2	248	0.00	29.861 
02:55	80.7	80.7	85.8	80	73.9	1	2	248	0.00	29.861 
03:00	80.7	80.7	85.8	80	73.9	1	3	248	0.00	29.865 
03:05	80.5	80.5	85.3	80	73.7	1	3	248	0.00	29.865 
03:10	80.5	80.5	85.5	81	74.1	0	2	248	0.00	29.865 
03:15	80.3	80.3	85.0	81	73.9	1	2	248	0.00	29.863 
03:20	80.3	80.3	85.0	81	73.9	1	2	248	0.00	29.863 
03:25	80.1	80.1	84.6	81	73.7	1	2	248	0.00	29.863 
03:30	80.1	80.1	84.6	81	73.7	0	2	248	0.00	29.863 
03:35	79.9	79.9	84.3	82	73.9	0	1	248	0.00	29.863 
03:40	79.8	79.8	84.1	82	73.8	0	2	248	0.00	29.863 
03:45	79.8	79.8	84.1	82	73.8	1	2	248	0.00	29.867 
03:50	79.8	79.8	84.1	82	73.8	0	2	248	0.00	29.867 
03:55	79.6	79.6	83.7	83	74.0	0	2	248	0.00	29.867 
04:00	79.2	79.2	82.9	83	73.6	0	1	248	0.00	29.868 
04:05	79.0	79.0	82.5	84	73.7	0	1	248	0.00	29.868 
04:10	78.8	78.8	82.1	84	73.5	0	2	248	0.00	29.868 
04:15	78.8	78.8	82.1	84	73.5	0	1	248	0.00	29.869 
04:20	78.6	78.6	81.7	85	73.7	0	1	248	0.00	29.869 
04:25	78.5	78.5	81.5	85	73.6	0	2	248	0.00	29.869 
04:30	78.5	78.5	81.5	85	73.6	0	1	248	0.00	29.870 
04:35	78.3	78.3	81.1	86	73.8	0	2	248	0.00	29.870 
04:40	78.1	78.1	80.6	86	73.6	0	1	248	0.00	29.870 
04:45	77.9	77.9	80.2	86	73.4	0	1	248	0.00	29.872 
04:50	77.9	77.9	80.2	87	73.7	0	2	248	0.00	29.872 
04:55	77.9	77.9	80.2	87	73.7	0	2	248	0.00	29.872 
05:00	77.9	77.9	80.2	87	73.7	0	1	248	0.00	29.871 
05:05	77.9	77.9	80.2	87	73.7	0	2	248	0.00	29.871 
05:10	77.9	77.9	80.2	87	73.7	0	2	248	0.00	29.871 
05:15	77.9	77.9	80.2	87	73.7	0	2	248	0.00	29.871 
05:20	77.7	77.7	79.8	87	73.5	0	1	248	0.00	29.871 
05:25	77.7	77.7	79.8	87	73.5	0	2	248	0.00	29.871 
05:30	77.7	77.7	79.8	87	73.5	0	1	248	0.00	29.880 
05:35	77.7	77.7	79.8	86	73.2	0	0	---	0.00	29.880 
05:40	77.6	77.6	79.6	87	73.4	0	1	248	0.00	29.880 
05:45	77.6	77.6	79.6	87	73.4	0	1	248	0.00	29.882 
05:50	77.4	77.4	79.1	87	73.2	0	1	248	0.00	29.882 
05:55	77.4	77.4	79.1	88	73.6	0	2	248	0.00	29.882 
06:00	77.4	77.4	79.1	87	73.2	0	1	248	0.00	29.884 
06:05	77.4	77.4	79.1	88	73.6	0	1	248	0.00	29.884 
06:10	77.2	77.2	78.7	88	73.4	0	2	248	0.00	29.884 
06:15	77.2	77.2	78.7	88	73.4	0	1	248	0.00	29.886 
06:20	77.0	77.0	78.3	88	73.2	0	2	248	0.00	29.886 
06:25	77.2	77.2	78.7	88	73.4	1	2	248	0.00	29.886 
06:30	77.2	77.2	78.7	88	73.4	1	3	248	0.00	29.888 
06:35	77.2	77.2	78.7	88	73.4	0	2	248	0.00	29.888 
06:40	77.2	77.2	78.7	88	73.4	1	2	248	0.00	29.888 
06:45	77.2	77.2	78.7	88	73.4	0	2	248	0.00	29.890 
06:50	77.2	77.2	78.7	87	73.0	0	2	248	0.00	29.890 
06:55	77.2	77.2	78.7	87	73.0	0	1	248	0.00	29.890 
07:00	77.2	77.2	78.7	87	73.0	0	2	248	0.00	29.891 
07:05	77.2	77.2	78.7	87	73.0	0	1	248	0.00	29.891 
07:10	77.2	77.2	78.7	87	73.0	0	3	248	0.00	29.891 
07:15	77.4	77.4	79.1	87	73.2	1	2	248	0.00	29.891 
07:20	77.4	77.4	79.1	87	73.2	0	2	248	0.00	29.891 
07:25	77.6	77.6	79.6	87	73.4	1	3	248	0.00	29.891 
07:30	77.7	77.7	79.8	86	73.2	1	4	248	0.00	29.892 
07:35	78.3	78.3	81.0	85	73.4	1	4	270	0.00	29.892 
07:40	78.5	78.5	81.4	84	73.2	0	2	270	0.00	29.892 
07:45	78.6	78.6	81.6	84	73.3	1	3	270	0.00	29.894 
07:50	78.8	78.8	82.0	83	73.2	1	5	248	0.00	29.894 
07:55	79.2	79.2	82.8	82	73.2	1	3	248	0.00	29.894 
08:00	79.4	79.4	83.2	82	73.4	1	4	248	0.00	29.900 
08:05	79.8	79.8	84.1	82	73.8	1	5	248	0.00	29.900 
08:10	79.9	79.9	84.1	81	73.5	1	3	248	0.00	29.900 
08:15	80.3	80.3	84.9	80	73.5	1	3	248	0.00	29.899 
08:20	80.7	80.7	85.9	81	74.3	1	3	270	0.00	29.899 
08:25	80.7	80.7	85.8	80	73.9	1	3	270	0.00	29.899 
08:30	80.9	80.9	86.0	79	73.8	2	5	248	0.00	29.901 
08:35	81.2	81.2	86.3	77	73.3	2	4	248	0.00	29.901 
08:40	81.4	81.4	86.7	77	73.5	2	5	270	0.00	29.901 
08:45	81.6	81.6	87.2	77	73.7	2	7	270	0.00	29.904 
08:50	81.8	81.8	87.6	77	73.9	2	5	248	0.00	29.904 
08:55	82.0	82.0	87.8	76	73.7	2	5	248	0.00	29.904 
09:00	82.4	82.4	88.7	76	74.1	2	6	270	0.00	29.904 
09:05	82.6	82.6	88.9	75	73.8	1	5	248	0.00	29.904 
09:10	82.8	82.8	89.3	75	74.0	2	4	248	0.00	29.904 
09:15	83.2	83.2	90.0	74	74.0	1	5	248	0.00	29.904 
09:20	83.4	83.4	90.4	74	74.2	2	5	270	0.00	29.904 
09:25	83.8	83.8	91.0	73	74.2	1	4	270	0.00	29.904 
09:30	84.0	84.0	91.5	73	74.4	2	4	270	0.00	29.904 
09:35	84.1	84.1	91.7	73	74.5	2	5	248	0.00	29.904 
09:40	84.3	84.3	91.8	72	74.3	2	4	248	0.00	29.904 
09:45	84.7	84.7	92.8	72	74.6	2	5	270	0.00	29.903 
09:50	84.9	84.9	93.2	72	74.8	2	4	270	0.00	29.903 
09:55	85.1	85.1	93.3	71	74.6	1	4	270	0.00	29.903 
10:00	85.3	85.3	93.8	71	74.8	1	4	315	0.00	29.897 
10:05	85.7	85.7	94.8	71	75.2	1	3	270	0.00	29.897 
10:10	85.9	85.9	94.4	69	74.5	2	4	270	0.00	29.897 
10:15	85.9	85.9	95.3	71	75.4	2	4	292	0.00	29.898 
10:20	86.3	86.3	95.4	69	74.9	1	3	248	0.00	29.898 
10:25	87.0	87.0	97.1	69	75.6	1	3	248	0.00	29.898 
10:30	87.0	87.0	96.6	68	75.1	1	3	248	0.00	29.896 
10:35	87.2	87.2	97.6	69	75.8	2	4	248	0.00	29.896 
10:40	87.2	87.2	97.1	68	75.3	2	5	270	0.00	29.896 
10:45	87.2	87.2	97.6	69	75.8	1	5	248	0.00	29.889 
10:50	87.4	87.4	97.1	67	75.1	2	4	248	0.00	29.889 
10:55	87.4	87.4	96.6	66	74.6	3	5	270	0.00	29.889 
11:00	87.6	87.6	98.6	69	76.1	2	5	248	0.00	29.890 
11:05	87.8	87.8	97.6	66	75.0	2	6	270	0.00	29.890 
11:10	88.0	88.0	97.6	65	74.7	2	6	248	0.00	29.890 
11:15	88.4	88.4	99.6	67	76.0	1	3	248	0.00	29.892 
11:20	88.8	88.8	99.5	65	75.5	2	6	248	0.00	29.892 
11:25	89.0	89.0	100.0	65	75.7	2	5	248	0.00	29.892 
11:30	89.0	89.0	100.0	65	75.7	2	4	248	0.00	29.899 
11:35	89.3	89.3	100.8	65	76.0	1	5	248	0.00	29.899 
11:40	89.7	89.7	100.7	63	75.4	2	7	248	0.00	29.899 
11:45	89.7	89.7	101.9	65	76.3	2	5	270	0.00	29.900 
11:50	89.9	89.9	101.2	63	75.6	2	3	248	0.00	29.900 
11:55	90.1	90.1	101.7	63	75.8	1	3	248	0.00	29.900 
12:00	90.1	90.1	101.1	62	75.3	2	6	270	0.00	29.902 
12:05	90.3	90.3	103.5	65	76.9	2	5	292	0.00	29.902 
12:10	90.5	90.5	102.7	63	76.1	2	4	270	0.00	29.902 
12:15	90.7	90.7	104.6	65	77.3	2	4	248	0.00	29.901 
12:20	91.0	91.0	102.8	61	75.6	2	4	248	0.00	29.901 
12:25	91.0	91.0	103.4	62	76.1	1	4	270	0.00	29.901 
12:30	91.4	91.4	102.5	59	75.0	2	4	270	0.00	29.901 
12:35	91.4	91.4	102.5	59	75.0	2	5	248	0.00	29.901 
12:40	91.4	91.4	103.8	61	76.0	2	5	270	0.00	29.901 
12:45	91.8	91.8	104.2	60	75.9	2	5	248	0.00	29.900 
12:50	92.1	92.1	104.3	59	75.7	2	4	270	0.00	29.900 
12:55	92.3	92.3	104.8	59	75.9	2	9	292	0.00	29.900 
13:00	92.5	92.5	103.9	57	75.0	2	5	248	0.00	29.899 
13:05	92.5	92.5	103.9	57	75.0	2	4	248	0.00	29.899 
13:10	92.7	92.7	104.4	57	75.2	1	3	270	0.00	29.899 
13:15	92.9	92.9	104.9	57	75.4	2	6	270	0.00	29.900 
13:20	92.7	92.7	104.4	57	75.2	3	5	248	0.00	29.900 
13:25	92.9	92.9	105.6	58	75.9	2	5	248	0.00	29.900 
13:30	93.2	93.2	106.4	58	76.2	2	5	248	0.00	29.898 
13:35	93.2	93.2	106.4	58	76.2	2	4	270	0.00	29.898 
13:40	93.4	93.4	109.2	61	77.9	2	4	270	0.00	29.898 
13:45	93.2	93.2	106.4	58	76.2	3	5	270	0.00	29.898 
13:50	93.2	93.2	107.2	59	76.7	2	5	248	0.00	29.898 
13:55	93.2	93.2	103.7	54	74.0	3	9	248	0.00	29.898 
14:00	93.4	93.4	104.1	54	74.2	3	10	248	0.00	29.900 
14:05	93.2	93.2	104.3	55	74.6	3	7	270	0.00	29.900 
14:10	93.2	93.2	106.4	58	76.2	2	6	270	0.00	29.900 
14:15	93.4	93.4	104.8	55	74.8	2	5	270	0.00	29.895 
14:20	93.8	93.8	106.6	56	75.7	2	7	270	0.00	29.895 
14:25	93.8	93.8	105.1	54	74.6	3	9	270	0.00	29.895 
14:30	93.6	93.6	103.9	53	73.8	3	9	270	0.00	29.889 
14:35	93.6	93.6	104.6	54	74.4	3	7	270	0.00	29.889 
14:40	93.6	93.6	105.3	55	75.0	3	5	270	0.00	29.889 
14:45	93.6	93.6	106.0	56	75.5	2	7	270	0.00	29.885 
14:50	93.8	93.8	105.1	54	74.6	3	7	248	0.00	29.885 
14:55	93.6	93.6	103.3	52	73.3	4	12	270	0.00	29.885 
15:00	93.6	93.6	103.3	52	73.3	3	10	270	0.00	29.885 
15:05	93.4	93.4	104.1	54	74.2	3	7	270	0.00	29.885 
15:10	93.8	93.8	104.4	53	74.0	3	8	270	0.00	29.885 
15:15	93.8	93.8	104.4	53	74.0	3	5	270	0.00	29.886 
15:20	94.3	94.3	105.6	53	74.5	2	5	248	0.00	29.886 
15:25	94.7	94.7	107.4	54	75.4	2	9	248	0.00	29.886 
15:30	94.7	94.7	104.5	50	73.1	3	7	270	0.00	29.884 
15:35	94.9	94.9	105.0	50	73.3	2	6	248	0.00	29.884 
15:40	94.5	94.5	105.4	52	74.1	3	7	248	0.00	29.884 
15:45	94.7	94.7	105.9	52	74.3	3	7	270	0.00	29.885 
15:50	94.7	94.7	104.5	50	73.1	3	6	270	0.00	29.885 
15:55	94.5	94.5	105.4	52	74.1	3	9	270	0.00	29.885 
16:00	94.0	94.0	104.2	52	73.6	3	5	270	0.00	29.881 
16:05	93.8	93.8	104.4	53	74.0	3	9	270	0.00	29.881 
16:10	94.0	94.0	103.6	51	73.1	3	6	270	0.00	29.881 
16:15	93.8	93.8	104.4	53	74.0	3	8	270	0.00	29.874 
16:20	94.0	94.0	104.2	52	73.6	2	6	270	0.00	29.874 
16:25	94.3	94.3	104.9	52	73.9	2	6	270	0.00	29.874 
16:30	94.3	94.3	104.3	51	73.3	3	7	248	0.00	29.872 
16:35	94.5	94.5	105.4	52	74.1	2	5	270	0.00	29.872 
16:40	94.3	94.3	103.6	50	72.8	2	5	270	0.00	29.872 
16:45	94.3	94.3	103.6	50	72.8	3	7	248	0.00	29.870 
16:50	93.8	93.8	103.7	52	73.5	2	5	270	0.00	29.870 
16:55	94.0	94.0	104.2	52	73.6	2	5	270	0.00	29.870 
17:00	93.8	93.8	103.1	51	72.9	3	7	270	0.00	29.870 
17:05	93.6	93.6	103.3	52	73.3	3	7	270	0.00	29.870 
17:10	93.4	93.4	102.8	52	73.1	3	7	248	0.00	29.870 
17:15	93.2	93.2	102.4	52	72.9	3	6	270	0.00	29.869 
17:20	92.9	92.9	102.9	54	73.8	3	10	270	0.00	29.869 
17:25	92.9	92.9	102.3	53	73.2	2	6	270	0.00	29.869 
17:30	92.9	92.9	101.7	52	72.6	3	9	270	0.00	29.864 
17:35	93.2	93.2	101.7	51	72.3	3	6	270	0.00	29.864 
17:40	93.2	93.2	101.1	50	71.7	4	8	270	0.00	29.864 
17:45	92.9	92.9	100.5	50	71.5	3	6	248	0.00	29.863 
17:50	93.2	93.2	102.4	52	72.9	1	3	248	0.00	29.863 
17:55	93.2	93.2	102.4	52	72.9	2	3	270	0.00	29.863 
18:00	93.4	93.4	102.8	52	73.1	2	4	248	0.00	29.867 
18:05	92.9	92.9	101.1	51	72.1	3	6	270	0.00	29.867 
18:10	92.5	92.5	100.2	51	71.7	2	6	270	0.00	29.867 
18:15	92.5	92.5	101.4	53	72.8	3	5	270	0.00	29.867 
18:20	92.1	92.1	101.7	55	73.6	2	5	270	0.00	29.867 
18:25	92.1	92.1	101.1	54	73.0	2	4	248	0.00	29.867 
18:30	92.1	92.1	101.1	54	73.0	3	6	270	0.00	29.871 
18:35	91.8	91.8	100.4	54	72.7	2	6	248	0.00	29.871 
18:40	91.6	91.6	99.9	54	72.6	3	6	248	0.00	29.871 
18:45	91.6	91.6	100.5	55	73.1	2	6	248	0.00	29.871 
18:50	91.4	91.4	100.1	55	72.9	3	5	248	0.00	29.871 
18:55	91.4	91.4	100.1	55	72.9	2	7	270	0.00	29.871 
19:00	91.2	91.2	99.6	55	72.7	3	6	248	0.00	29.868 
19:05	91.2	91.2	100.2	56	73.3	3	7	270	0.00	29.868 
19:10	91.2	91.2	100.2	56	73.3	3	7	248	0.00	29.868 
19:15	91.0	91.0	99.7	56	73.1	3	6	270	0.00	29.869 
19:20	90.7	90.7	99.6	57	73.3	3	11	248	0.00	29.869 
19:25	90.7	90.7	99.6	57	73.3	2	5	270	0.00	29.869 
19:30	90.7	90.7	100.2	58	73.8	2	4	270	0.00	29.871 
19:35	90.5	90.5	99.7	58	73.7	3	7	270	0.00	29.871 
19:40	90.3	90.3	99.3	58	73.5	3	5	248	0.00	29.871 
19:45	90.1	90.1	99.4	59	73.8	3	5	248	0.00	29.873 
19:50	89.9	89.9	98.9	59	73.6	2	6	248	0.00	29.873 
19:55	89.9	89.9	98.9	59	73.6	2	5	248	0.00	29.873 
20:00	89.9	89.9	98.9	59	73.6	2	5	270	0.00	29.875 
20:05	89.9	89.9	98.9	59	73.6	2	4	270	0.00	29.875 
20:10	89.5	89.5	98.5	60	73.7	2	5	248	0.00	29.875 
20:15	89.3	89.3	98.6	61	74.0	1	4	248	0.00	29.872 
20:20	89.3	89.3	98.6	61	74.0	2	7	248	0.00	29.872 
20:25	89.3	89.3	98.6	61	74.0	2	4	270	0.00	29.872 
20:30	88.8	88.8	97.9	62	74.1	1	3	270	0.00	29.873 
20:35	88.6	88.6	97.5	62	73.9	2	3	270	0.00	29.873 
20:40	88.4	88.4	97.5	63	74.2	1	5	270	0.00	29.873 
20:45	88.4	88.4	97.5	63	74.2	1	3	270	0.00	29.873 
20:50	88.2	88.2	97.0	63	74.0	1	7	248	0.00	29.873 
20:55	87.8	87.8	96.6	64	74.1	1	4	248	0.00	29.873 
21:00	87.6	87.6	96.1	64	73.9	1	3	248	0.00	29.871 
21:05	87.4	87.4	96.1	65	74.2	1	4	248	0.00	29.871 
21:10	87.4	87.4	96.1	65	74.2	1	4	248	0.00	29.871 
21:15	87.2	87.2	95.7	65	74.0	1	3	225	0.00	29.872 
21:20	87.0	87.0	95.2	65	73.8	1	3	248	0.00	29.872 
21:25	87.0	87.0	95.7	66	74.2	1	2	248	0.00	29.872 
21:30	86.7	86.7	95.0	66	73.9	1	2	248	0.00	29.874 
21:35	86.5	86.5	95.4	68	74.7	1	4	248	0.00	29.874 
21:40	86.5	86.5	94.9	67	74.2	1	2	248	0.00	29.874 
21:45	86.3	86.3	94.5	67	74.0	1	2	248	0.00	29.882 
21:50	86.3	86.3	94.5	67	74.0	1	3	248	0.00	29.882 
21:55	86.3	86.3	94.5	67	74.0	1	3	248	0.00	29.882 
22:00	86.1	86.1	94.0	67	73.8	1	4	248	0.00	29.887 
22:05	85.9	85.9	94.0	68	74.1	1	3	270	0.00	29.887 
22:10	85.9	85.9	94.0	68	74.1	1	4	270	0.00	29.887 
22:15	86.1	86.1	94.4	68	74.3	2	4	270	0.00	29.885 
22:20	86.1	86.1	94.4	68	74.3	1	4	248	0.00	29.885 
22:25	85.7	85.7	93.5	68	73.9	2	6	248	0.00	29.885 
22:30	85.7	85.7	93.5	68	73.9	2	4	270	0.00	29.880 
22:35	85.7	85.7	93.5	68	73.9	2	6	248	0.00	29.880 
22:40	85.5	85.5	93.5	69	74.1	1	4	248	0.00	29.880 
22:45	85.3	85.3	93.0	69	73.9	2	5	248	0.00	29.882 
22:50	85.3	85.3	93.0	69	73.9	1	3	248	0.00	29.882 
22:55	85.3	85.3	93.0	69	73.9	2	5	270	0.00	29.882 
23:00	85.3	85.3	93.0	69	73.9	1	3	270	0.00	29.880 
23:05	84.9	84.9	92.1	69	73.6	2	5	248	0.00	29.880 
23:10	84.7	84.7	91.7	69	73.4	1	3	248	0.00	29.880 
23:15	84.7	84.7	91.7	69	73.4	1	3	248	0.00	29.876 
23:20	84.7	84.7	91.7	69	73.4	1	4	270	0.00	29.876 
23:25	84.5	84.5	91.2	69	73.2	2	5	248	0.00	29.876 
23:30	84.3	84.3	91.1	70	73.4	1	3	248	0.00	29.871 
23:35	84.3	84.3	91.1	70	73.4	1	3	248	0.00	29.871 
23:40	84.1	84.1	91.0	71	73.7	1	3	248	0.00	29.871 
23:45	84.0	84.0	90.8	71	73.6	1	2	248	0.00	29.873 
23:50	83.6	83.6	90.2	72	73.6	1	2	248	0.00	29.873 
23:55	83.4	83.4	90.1	73	73.8	1	3	270	0.00	29.873 

CoCoRaHS
IN-AL-39
A2 Web Hosting
Creative Commons License
GoDaddy
Look for:

loaded 2017-10-16 20:25:29 • last modified 2010-11-18 10:43:29
Privacy PolicyDisclaimer
• wx.awcolley.com is powered by PmWiki v.2002016 •
• all content (unless otherwise noted) © 2017 A W Colley